Terminal Aerodrome Forecast
Issued by NWS

Home | Current Version | Previous Version | Text Only | Print | Product List | Glossary On
Versions: 1 2 3 4 5 6 7 8 9 10 11 12 13 14 15 16 17 18 19 20
000
FTUS46 KSGX 072029 AAB
TAFONT
TAF AMD
KONT 072029Z 0720/0824 25007KT 5SM HZ SKC
     FM072200 25012G18KT P6SM SKC
     FM080200 25011KT P6SM SKC
     FM080600 VRB05KT P6SM SCT015
     FM080800 VRB05KT P6SM OVC015
      TEMPO 0814/0818 4SM HZ OVC015
     FM081800 25007KT P6SM FEW020
     FM082100 25012KT P6SM SKC=

USA.gov is the U.S. government's official web portal to all federal, state and local government web resources and services.